createdAt,value
2018-06-18T00:00:26.814Z,97443.81
2018-06-18T00:05:21.290Z,97446.27
2018-06-18T00:10:15.776Z,97448.66
2018-06-18T00:15:10.220Z,97448.56
2018-06-18T00:20:04.690Z,97435.25
2018-06-18T00:24:59.101Z,97439.83
2018-06-18T00:29:53.512Z,97435.84
2018-06-18T00:34:48.033Z,97440.24
2018-06-18T00:39:42.488Z,97444.95
2018-06-18T00:44:36.927Z,97444.72
2018-06-18T00:49:31.324Z,97444.16
2018-06-18T00:54:25.768Z,97437.72
2018-06-18T00:59:20.199Z,97438.48
2018-06-18T01:04:14.608Z,97432.26
2018-06-18T01:09:11.275Z,97437.82
2018-06-18T01:14:06.703Z,97437.12
2018-06-18T01:19:01.120Z,97428.73
2018-06-18T01:24:08.629Z,97437.73
2018-06-18T01:29:03.169Z,97440.08
2018-06-18T01:34:01.088Z,97444.86
2018-06-18T01:38:55.516Z,97428.55
2018-06-18T01:43:49.925Z,97426.14
2018-06-18T01:48:44.357Z,97429.44
2018-06-18T01:53:38.796Z,97430.48
2018-06-18T01:58:33.205Z,97430.48
2018-06-18T02:03:27.625Z,97435.81
2018-06-18T02:08:22.038Z,97438.79
2018-06-18T02:13:16.429Z,97435.77
2018-06-18T02:18:10.850Z,97436.01
2018-06-18T02:23:05.332Z,97438.28
2018-06-18T02:28:04.982Z,97438.28
2018-06-18T02:33:04.557Z,97451.42
2018-06-18T02:38:04.093Z,97445.87
2018-06-18T02:42:58.525Z,97454.25
2018-06-18T02:47:52.935Z,97462.02
2018-06-18T02:52:47.337Z,97455.66
2018-06-18T02:57:41.941Z,97456.48
2018-06-18T03:02:36.336Z,97455.20
2018-06-18T03:07:30.742Z,97460.93
2018-06-18T03:12:25.206Z,97465.23
2018-06-18T03:17:20.195Z,97463.86
2018-06-18T03:22:19.848Z,97463.02
2018-06-18T03:27:19.242Z,97464.94
2018-06-18T03:32:17.029Z,97472.70
2018-06-18T03:37:14.792Z,97480.03
2018-06-18T03:42:09.268Z,97490.01
2018-06-18T03:47:12.697Z,97484.91
2018-06-18T03:52:07.112Z,97487.80
2018-06-18T03:57:01.525Z,97489.47
2018-06-18T04:02:06.179Z,97498.98
2018-06-18T04:08:09.332Z,97497.72
2018-06-18T04:13:03.572Z,97489.83
2018-06-18T04:17:58.000Z,97490.92
2018-06-18T04:22:52.402Z,97509.92
2018-06-18T04:27:47.157Z,97516.81
2018-06-18T04:32:41.560Z,97506.05
2018-06-18T04:37:36.116Z,97506.33
2018-06-18T04:42:35.634Z,97508.31
2018-06-18T04:47:35.233Z,97516.23
2018-06-18T04:52:29.675Z,97503.80
2018-06-18T04:57:24.147Z,97509.45
2018-06-18T05:02:18.565Z,97518.21
2018-06-18T05:07:13.005Z,97512.95
2018-06-18T05:12:07.480Z,97510.58
2018-06-18T05:17:01.905Z,97509.25
2018-06-18T05:21:56.332Z,97516.27
2018-06-18T05:26:54.173Z,97522.44
2018-06-18T05:31:48.576Z,97531.57
2018-06-18T05:36:42.997Z,97543.54
2018-06-18T05:41:37.591Z,97542.49
2018-06-18T05:46:31.989Z,97531.57
2018-06-18T05:51:27.401Z,97536.92
2018-06-18T05:56:21.796Z,97524.21
2018-06-18T06:01:16.202Z,97529.26
2018-06-18T06:06:10.689Z,97534.58
2018-06-18T06:11:05.175Z,97541.08
2018-06-18T06:16:00.164Z,97543.20
2018-06-18T06:20:59.544Z,97533.55
2018-06-18T06:25:54.241Z,97535.11
2018-06-18T06:30:48.676Z,97544.69
2018-06-18T06:35:45.128Z,97546.52
2018-06-18T06:40:39.753Z,97551.73
2018-06-18T06:45:46.151Z,97556.56
2018-06-18T06:50:41.628Z,97557.64
2018-06-18T06:55:36.263Z,97566.94
2018-06-18T07:00:30.725Z,97562.95
2018-06-18T07:05:24.863Z,97561.18
2018-06-18T07:10:20.042Z,97564.48
2018-06-18T07:15:18.953Z,97555.50
2018-06-18T07:20:13.491Z,97550.58
2018-06-18T07:25:08.000Z,97548.22
2018-06-18T07:30:02.641Z,97546.45
2018-06-18T07:34:57.216Z,97550.09
2018-06-18T07:39:52.806Z,97546.58
2018-06-18T07:44:47.766Z,97557.91
2018-06-18T07:49:42.887Z,97551.02
2018-06-18T07:54:44.395Z,97551.23
2018-06-18T07:59:39.509Z,97559.66
2018-06-18T08:04:41.299Z,97556.98
2018-06-18T08:09:37.557Z,97553.68
2018-06-18T08:14:32.556Z,97557.38
2018-06-18T08:19:26.989Z,97552.91
2018-06-18T08:24:21.417Z,97562.42
2018-06-18T08:29:16.950Z,97547.91
2018-06-18T08:34:11.357Z,97554.25
2018-06-18T08:39:09.416Z,97558.72
2018-06-18T08:44:04.944Z,97564.03
2018-06-18T08:49:06.986Z,97559.05
2018-06-18T08:54:06.745Z,97549.81
2018-06-18T08:59:10.416Z,97555.76
2018-06-18T09:04:10.948Z,97561.44
2018-06-18T09:09:08.389Z,97553.56
2018-06-18T09:14:02.828Z,97553.45
2018-06-18T09:18:58.968Z,97542.38
2018-06-18T09:23:54.937Z,97540.20
2018-06-18T09:28:51.960Z,97542.70
2018-06-18T09:33:47.278Z,97537.90
2018-06-18T09:38:41.941Z,97544.01
2018-06-18T09:43:36.681Z,97546.16
2018-06-18T09:48:37.225Z,97548.66
2018-06-18T09:53:36.872Z,97548.97
2018-06-18T10:00:46.479Z,97554.02
2018-06-18T10:05:41.302Z,97546.42
2018-06-18T10:10:36.123Z,97552.28
2018-06-18T10:15:31.012Z,97563.94
2018-06-18T10:20:26.818Z,97547.59
2018-06-18T10:25:21.364Z,97550.66
2018-06-18T10:30:16.213Z,97547.83
2018-06-18T10:35:16.146Z,97541.86
2018-06-18T10:40:16.604Z,97538.36
2018-06-18T10:45:13.279Z,97534.97
2018-06-18T10:50:07.961Z,97533.16
2018-06-18T10:55:03.396Z,97533.77
2018-06-18T10:59:57.955Z,97525.21
2018-06-18T11:04:59.201Z,97531.43
2018-06-18T11:09:55.935Z,97531.36
2018-06-18T11:14:54.967Z,97518.80
2018-06-18T11:19:56.199Z,97519.97
2018-06-18T11:25:00.901Z,97523.63
2018-06-18T11:29:56.926Z,97517.67
2018-06-18T11:40:20.621Z,97509.25
2018-06-18T11:45:28.757Z,97508.95
2018-06-18T11:50:26.355Z,97509.13
2018-06-18T11:55:24.184Z,97512.73
2018-06-18T12:02:32.629Z,97500.97
2018-06-18T12:07:33.995Z,97500.97
2018-06-18T12:12:30.796Z,97503.20
2018-06-18T12:17:27.576Z,97499.48
2018-06-18T12:22:24.414Z,97496.47
2018-06-18T12:27:27.577Z,97492.48
2018-06-18T12:32:26.779Z,97491.47
2018-06-18T12:37:25.735Z,97492.81
2018-06-18T12:42:26.698Z,97488.98
2018-06-18T12:47:29.106Z,97484.97
2018-06-18T12:52:31.411Z,97484.56
2018-06-18T12:57:29.097Z,97481.73
2018-06-18T13:02:37.740Z,97482.80
2018-06-18T13:07:35.454Z,97478.00
2018-06-18T13:12:33.565Z,97480.98
2018-06-18T13:17:31.472Z,97481.24
2018-06-18T13:22:30.330Z,97478.67
2018-06-18T13:27:33.940Z,97477.20
2018-06-18T13:32:31.795Z,97465.43
2018-06-18T13:37:34.304Z,97467.89
2018-06-18T13:42:37.981Z,97468.95
2018-06-18T13:47:41.228Z,97458.27
2018-06-18T13:52:38.060Z,97446.14
2018-06-18T13:57:42.575Z,97452.50
2018-06-18T14:02:40.668Z,97446.42
2018-06-18T14:07:37.767Z,97442.70
2018-06-18T14:12:36.761Z,97441.45
2018-06-18T14:17:33.746Z,97427.58
2018-06-18T14:22:29.886Z,97431.45
2018-06-18T14:27:27.694Z,97424.65
2018-06-18T14:32:29.870Z,97424.73
2018-06-18T14:39:35.705Z,97424.33
2018-06-18T14:44:32.183Z,97422.25
2018-06-18T14:49:27.922Z,97422.80
2018-06-18T14:54:24.361Z,97415.70
2018-06-18T15:00:15.936Z,97422.55
2018-06-18T15:05:12.323Z,97423.72
2018-06-18T15:10:08.383Z,97417.52
2018-06-18T15:15:09.851Z,97420.31
2018-06-18T15:20:05.456Z,97422.67
2018-06-18T15:25:14.042Z,97420.63
2018-06-18T15:30:10.137Z,97414.50
2018-06-18T15:35:05.887Z,97408.86
2018-06-18T15:40:01.446Z,97421.39
2018-06-18T15:44:57.360Z,97414.57
2018-06-18T15:49:53.318Z,97415.05
2018-06-18T15:54:57.326Z,97414.39
2018-06-18T15:59:55.623Z,97420.09
2018-06-18T16:04:52.564Z,97423.59
2018-06-18T16:09:49.298Z,97421.50
2018-06-18T16:14:46.168Z,97420.91
2018-06-18T16:19:43.446Z,97417.83
2018-06-18T16:24:40.210Z,97417.23
2018-06-18T16:29:37.343Z,97417.99
2018-06-18T16:34:34.211Z,97420.81
2018-06-18T16:39:31.082Z,97417.53
2018-06-18T16:44:27.854Z,97418.50
2018-06-18T16:49:24.836Z,97418.09
2018-06-18T16:54:21.927Z,97416.31
2018-06-18T16:59:18.660Z,97409.17
2018-06-18T17:04:15.936Z,97404.89
2018-06-18T17:09:13.411Z,97405.24
2018-06-18T17:14:10.285Z,97406.91
2018-06-18T17:19:07.080Z,97406.87
2018-06-18T17:24:03.959Z,97410.84
2018-06-18T17:29:00.787Z,97411.89
2018-06-18T17:33:57.591Z,97415.63
2018-06-18T17:38:54.424Z,97418.74
2018-06-18T17:43:51.367Z,97420.89
2018-06-18T17:48:48.156Z,97427.62
2018-06-18T17:53:45.011Z,97420.42
2018-06-18T17:58:41.786Z,97421.28
2018-06-18T18:03:38.589Z,97426.70
2018-06-18T18:08:35.245Z,97435.27
2018-06-18T18:13:33.484Z,97430.53
2018-06-18T18:18:30.288Z,97429.23
2018-06-18T18:23:26.341Z,97428.48
2018-06-18T18:28:23.127Z,97434.66
2018-06-18T18:33:20.104Z,97433.74
2018-06-18T18:38:16.802Z,97434.77
2018-06-18T18:43:13.749Z,97440.64
2018-06-18T18:48:10.565Z,97446.22
2018-06-18T18:53:07.710Z,97443.30
2018-06-18T18:58:21.165Z,97443.77
2018-06-18T19:03:20.196Z,97451.37
2018-06-18T19:08:22.325Z,97440.87
2018-06-18T19:13:26.240Z,97453.47
2018-06-18T19:18:23.010Z,97451.17
2018-06-18T19:23:19.803Z,97458.38
2018-06-18T19:28:16.492Z,97467.33
2018-06-18T19:33:23.890Z,97475.88
2018-06-18T19:38:20.847Z,97487.63
2018-06-18T19:43:17.720Z,97484.58
2018-06-18T19:48:20.495Z,97501.56
2018-06-18T19:53:17.288Z,97499.28
2018-06-18T19:58:14.147Z,97512.11
2018-06-18T20:03:10.874Z,97520.22
2018-06-18T20:08:13.503Z,97526.44
2018-06-18T20:13:10.177Z,97524.34
2018-06-18T20:18:07.033Z,97534.48
2018-06-18T20:23:04.837Z,97529.98
2018-06-18T20:28:01.629Z,97545.73
2018-06-18T20:32:58.267Z,97546.30
2018-06-18T20:37:55.238Z,97559.12
2018-06-18T20:42:51.427Z,97557.82
2018-06-18T20:47:48.472Z,97570.59
2018-06-18T20:52:45.675Z,97571.39
2018-06-18T20:57:42.563Z,97580.72
2018-06-18T21:02:39.265Z,97583.63
2018-06-18T21:07:36.671Z,97579.39
2018-06-18T21:12:33.670Z,97587.36
2018-06-18T21:17:30.530Z,97590.30
2018-06-18T21:22:27.229Z,97593.19
2018-06-18T21:27:24.136Z,97599.34
2018-06-18T21:32:20.883Z,97601.45
2018-06-18T21:37:17.689Z,97613.40
2018-06-18T21:42:14.328Z,97608.88
2018-06-18T21:47:10.369Z,97614.70
2018-06-18T21:52:07.204Z,97618.09
2018-06-18T21:57:04.053Z,97622.60
2018-06-18T22:02:00.775Z,97621.27
2018-06-18T22:06:57.584Z,97630.48
2018-06-18T22:11:56.749Z,97626.70
2018-06-18T22:16:53.698Z,97624.50
2018-06-18T22:21:50.556Z,97630.58
2018-06-18T22:26:47.543Z,97625.61
2018-06-18T22:31:44.202Z,97629.75
2018-06-18T22:36:41.015Z,97627.52
2018-06-18T22:41:37.713Z,97629.65
2018-06-18T22:46:34.538Z,97637.33
2018-06-18T22:51:31.260Z,97641.23
2018-06-18T22:56:28.225Z,97635.45
2018-06-18T23:01:24.937Z,97640.17
2018-06-18T23:06:22.027Z,97642.48
2018-06-18T23:11:18.788Z,97641.50
2018-06-18T23:16:15.555Z,97642.31
2018-06-18T23:21:12.229Z,97641.94
2018-06-18T23:26:09.182Z,97644.97
2018-06-18T23:31:06.022Z,97649.11
2018-06-18T23:36:02.930Z,97650.06
2018-06-18T23:40:59.698Z,97655.58
2018-06-18T23:45:56.559Z,97658.48
2018-06-18T23:50:53.222Z,97649.55
2018-06-18T23:55:49.982Z,97652.66
